sensor_id;sensor_type;location;lat;lon;timestamp;pressure;altitude;pressure_sealevel;temperature;humidity
64230;BME280;50547;49.498;0.092;2023-02-20T00:02:20;1027.80;;;9.27;85.10
64230;BME280;50547;49.498;0.092;2023-02-20T00:04:49;1027.78;;;9.34;84.79
64230;BME280;50547;49.498;0.092;2023-02-20T00:07:18;1027.80;;;9.24;84.16
64230;BME280;50547;49.498;0.092;2023-02-20T00:09:47;1027.76;;;9.19;84.13
64230;BME280;50547;49.498;0.092;2023-02-20T00:12:16;1027.92;;;9.21;83.72
64230;BME280;50547;49.498;0.092;2023-02-20T00:14:45;1027.88;;;9.09;84.20
64230;BME280;50547;49.498;0.092;2023-02-20T00:17:11;1027.80;;;9.03;84.69
64230;BME280;50547;49.498;0.092;2023-02-20T00:19:40;1027.88;;;9.19;83.98
64230;BME280;50547;49.498;0.092;2023-02-20T00:22:09;1027.86;;;9.09;84.47
64230;BME280;50547;49.498;0.092;2023-02-20T00:24:38;1027.88;;;9.22;84.29
64230;BME280;50547;49.498;0.092;2023-02-20T00:27:07;1027.88;;;9.15;84.76
64230;BME280;50547;49.498;0.092;2023-02-20T00:29:36;1027.88;;;9.12;84.76
64230;BME280;50547;49.498;0.092;2023-02-20T00:32:05;1027.86;;;9.27;83.81
64230;BME280;50547;49.498;0.092;2023-02-20T00:34:34;1027.90;;;9.52;82.78
64230;BME280;50547;49.498;0.092;2023-02-20T00:37:03;1027.84;;;9.55;82.69
64230;BME280;50547;49.498;0.092;2023-02-20T00:39:33;1027.84;;;9.70;82.68
64230;BME280;50547;49.498;0.092;2023-02-20T00:42:02;1027.78;;;9.55;82.99
64230;BME280;50547;49.498;0.092;2023-02-20T00:44:31;1027.80;;;9.38;83.87
64230;BME280;50547;49.498;0.092;2023-02-20T00:47:00;1027.68;;;9.43;83.60
64230;BME280;50547;49.498;0.092;2023-02-20T00:49:30;1027.78;;;9.13;84.58
64230;BME280;50547;49.498;0.092;2023-02-20T00:51:59;1027.78;;;9.08;84.79
64230;BME280;50547;49.498;0.092;2023-02-20T00:54:28;1027.78;;;9.10;84.58
64230;BME280;50547;49.498;0.092;2023-02-20T00:56:56;1027.82;;;9.19;84.16
64230;BME280;50547;49.498;0.092;2023-02-20T00:59:26;1027.76;;;9.28;83.62
64230;BME280;50547;49.498;0.092;2023-02-20T01:01:55;1027.74;;;9.33;83.46
64230;BME280;50547;49.498;0.092;2023-02-20T01:04:24;1027.76;;;9.33;83.54
64230;BME280;50547;49.498;0.092;2023-02-20T01:06:53;1027.74;;;9.25;84.25
64230;BME280;50547;49.498;0.092;2023-02-20T01:09:22;1027.68;;;9.27;84.61
64230;BME280;50547;49.498;0.092;2023-02-20T01:11:51;1027.64;;;9.28;84.10
64230;BME280;50547;49.498;0.092;2023-02-20T01:14:21;1027.64;;;9.27;83.99
64230;BME280;50547;49.498;0.092;2023-02-20T01:16:51;1027.56;;;9.32;83.68
64230;BME280;50547;49.498;0.092;2023-02-20T01:19:21;1027.56;;;9.40;83.20
64230;BME280;50547;49.498;0.092;2023-02-20T01:21:51;1027.56;;;9.35;83.22
64230;BME280;50547;49.498;0.092;2023-02-20T01:24:20;1027.55;;;9.41;82.91
64230;BME280;50547;49.498;0.092;2023-02-20T01:26:49;1027.53;;;9.44;83.20
64230;BME280;50547;49.498;0.092;2023-02-20T01:29:18;1027.49;;;9.29;83.64
64230;BME280;50547;49.498;0.092;2023-02-20T01:31:48;1027.51;;;9.22;84.03
64230;BME280;50547;49.498;0.092;2023-02-20T01:34:19;1027.55;;;9.04;84.70
64230;BME280;50547;49.498;0.092;2023-02-20T01:36:48;1027.55;;;9.15;83.88
64230;BME280;50547;49.498;0.092;2023-02-20T01:39:18;1027.47;;;9.01;83.95
64230;BME280;50547;49.498;0.092;2023-02-20T01:41:50;1027.51;;;9.09;83.46
64230;BME280;50547;49.498;0.092;2023-02-20T01:44:23;1027.43;;;9.17;83.02
64230;BME280;50547;49.498;0.092;2023-02-20T01:46:53;1027.41;;;9.13;83.30
64230;BME280;50547;49.498;0.092;2023-02-20T01:49:27;1027.39;;;9.19;83.25
64230;BME280;50547;49.498;0.092;2023-02-20T01:52:04;1027.35;;;9.30;82.88
64230;BME280;50547;49.498;0.092;2023-02-20T01:54:35;1027.31;;;9.29;83.14
64230;BME280;50547;49.498;0.092;2023-02-20T01:57:11;1027.33;;;9.27;83.15
64230;BME280;50547;49.498;0.092;2023-02-20T01:59:42;1027.33;;;9.21;83.52
64230;BME280;50547;49.498;0.092;2023-02-20T02:02:12;1027.33;;;8.93;84.38
64230;BME280;50547;49.498;0.092;2023-02-20T02:04:42;1027.37;;;9.06;83.46
64230;BME280;50547;49.498;0.092;2023-02-20T02:07:12;1027.37;;;9.02;83.95
64230;BME280;50547;49.498;0.092;2023-02-20T02:09:46;1027.37;;;8.99;84.16
64230;BME280;50547;49.498;0.092;2023-02-20T02:12:17;1027.35;;;8.89;84.39
64230;BME280;50547;49.498;0.092;2023-02-20T02:14:46;1027.37;;;8.67;85.17
64230;BME280;50547;49.498;0.092;2023-02-20T02:17:29;1027.35;;;8.83;84.46
64230;BME280;50547;49.498;0.092;2023-02-20T02:20:53;1027.27;;;8.81;84.43
64230;BME280;50547;49.498;0.092;2023-02-20T02:23:51;1027.31;;;8.97;83.98
64230;BME280;50547;49.498;0.092;2023-02-20T02:26:43;1027.21;;;9.09;83.91
64230;BME280;50547;49.498;0.092;2023-02-20T02:29:31;1027.19;;;9.20;83.63
64230;BME280;50547;49.498;0.092;2023-02-20T02:32:21;1027.16;;;9.07;84.28
64230;BME280;50547;49.498;0.092;2023-02-20T02:36:14;1027.14;;;8.96;85.01
64230;BME280;50547;49.498;0.092;2023-02-20T02:38:51;1027.08;;;9.06;84.00
64230;BME280;50547;49.498;0.092;2023-02-20T02:41:31;1027.06;;;9.08;83.68
64230;BME280;50547;49.498;0.092;2023-02-20T02:44:10;1027.06;;;9.04;84.00
64230;BME280;50547;49.498;0.092;2023-02-20T02:46:44;1027.00;;;9.05;83.40
64230;BME280;50547;49.498;0.092;2023-02-20T02:49:19;1026.90;;;9.11;83.20
64230;BME280;50547;49.498;0.092;2023-02-20T02:51:53;1026.88;;;9.12;83.50
64230;BME280;50547;49.498;0.092;2023-02-20T02:54:26;1026.86;;;9.01;83.98
64230;BME280;50547;49.498;0.092;2023-02-20T02:57:18;1026.84;;;8.93;84.13
64230;BME280;50547;49.498;0.092;2023-02-20T02:59:52;1026.82;;;8.97;84.14
64230;BME280;50547;49.498;0.092;2023-02-20T03:02:25;1026.88;;;8.83;83.93
64230;BME280;50547;49.498;0.092;2023-02-20T03:04:58;1026.84;;;8.86;83.53
64230;BME280;50547;49.498;0.092;2023-02-20T03:07:29;1026.80;;;8.89;83.39
64230;BME280;50547;49.498;0.092;2023-02-20T03:10:03;1026.88;;;8.72;84.77
64230;BME280;50547;49.498;0.092;2023-02-20T03:12:36;1026.86;;;8.81;83.93
64230;BME280;50547;49.498;0.092;2023-02-20T03:15:10;1026.80;;;8.84;83.73
64230;BME280;50547;49.498;0.092;2023-02-20T03:17:45;1026.72;;;8.66;84.49
64230;BME280;50547;49.498;0.092;2023-02-20T03:20:18;1026.74;;;8.69;83.84
64230;BME280;50547;49.498;0.092;2023-02-20T03:22:52;1026.72;;;8.62;83.71
64230;BME280;50547;49.498;0.092;2023-02-20T03:25:24;1026.69;;;8.67;83.91
64230;BME280;50547;49.498;0.092;2023-02-20T03:27:57;1026.55;;;8.70;83.54
64230;BME280;50547;49.498;0.092;2023-02-20T03:30:29;1026.65;;;8.49;84.08
64230;BME280;50547;49.498;0.092;2023-02-20T03:33:04;1026.65;;;8.61;83.49
64230;BME280;50547;49.498;0.092;2023-02-20T03:35:38;1026.55;;;8.66;82.89
64230;BME280;50547;49.498;0.092;2023-02-20T03:38:11;1026.59;;;8.65;83.04
64230;BME280;50547;49.498;0.092;2023-02-20T03:40:41;1026.53;;;8.73;82.84
64230;BME280;50547;49.498;0.092;2023-02-20T03:43:11;1026.45;;;8.70;83.30
64230;BME280;50547;49.498;0.092;2023-02-20T03:45:44;1026.51;;;8.63;83.58
64230;BME280;50547;49.498;0.092;2023-02-20T03:48:19;1026.45;;;8.68;83.21
64230;BME280;50547;49.498;0.092;2023-02-20T03:50:50;1026.47;;;8.95;82.24
64230;BME280;50547;49.498;0.092;2023-02-20T03:53:19;1026.45;;;8.90;82.61
64230;BME280;50547;49.498;0.092;2023-02-20T03:55:50;1026.43;;;8.75;83.24
64230;BME280;50547;49.498;0.092;2023-02-20T03:58:22;1026.41;;;8.72;83.62
64230;BME280;50547;49.498;0.092;2023-02-20T04:00:54;1026.35;;;8.86;83.08
64230;BME280;50547;49.498;0.092;2023-02-20T04:03:29;1026.35;;;8.81;82.92
64230;BME280;50547;49.498;0.092;2023-02-20T04:06:01;1026.29;;;8.65;83.29
64230;BME280;50547;49.498;0.092;2023-02-20T04:08:35;1026.22;;;8.44;84.47
64230;BME280;50547;49.498;0.092;2023-02-20T04:11:09;1026.29;;;8.43;84.17
64230;BME280;50547;49.498;0.092;2023-02-20T04:13:40;1026.29;;;8.36;84.19
64230;BME280;50547;49.498;0.092;2023-02-20T04:16:10;1026.29;;;8.50;83.34
64230;BME280;50547;49.498;0.092;2023-02-20T04:18:39;1026.22;;;8.66;82.36
64230;BME280;50547;49.498;0.092;2023-02-20T04:21:13;1026.25;;;8.53;83.54
64230;BME280;50547;49.498;0.092;2023-02-20T04:23:46;1026.27;;;8.56;83.65
64230;BME280;50547;49.498;0.092;2023-02-20T04:26:19;1026.25;;;8.63;83.38
64230;BME280;50547;49.498;0.092;2023-02-20T04:28:49;1026.27;;;8.38;84.64
64230;BME280;50547;49.498;0.092;2023-02-20T04:31:19;1026.27;;;8.24;85.21
64230;BME280;50547;49.498;0.092;2023-02-20T04:33:49;1026.37;;;8.42;83.72
64230;BME280;50547;49.498;0.092;2023-02-20T04:36:15;1026.37;;;8.41;83.50
64230;BME280;50547;49.498;0.092;2023-02-20T04:38:44;1026.35;;;8.40;83.18
64230;BME280;50547;49.498;0.092;2023-02-20T04:41:13;1026.31;;;8.47;83.18
64230;BME280;50547;49.498;0.092;2023-02-20T04:43:39;1026.37;;;8.27;84.06
64230;BME280;50547;49.498;0.092;2023-02-20T04:46:08;1026.35;;;8.30;84.24
64230;BME280;50547;49.498;0.092;2023-02-20T04:48:37;1026.37;;;8.32;83.98
64230;BME280;50547;49.498;0.092;2023-02-20T04:51:03;1026.37;;;8.40;83.67
64230;BME280;50547;49.498;0.092;2023-02-20T04:53:32;1026.29;;;8.69;82.50
64230;BME280;50547;49.498;0.092;2023-02-20T04:56:01;1026.35;;;8.64;82.66
64230;BME280;50547;49.498;0.092;2023-02-20T04:58:27;1026.31;;;8.66;82.63
64230;BME280;50547;49.498;0.092;2023-02-20T05:01:06;1026.33;;;8.55;83.22
64230;BME280;50547;49.498;0.092;2023-02-20T05:03:35;1026.29;;;8.54;83.45
64230;BME280;50547;49.498;0.092;2023-02-20T05:06:04;1026.31;;;8.55;83.32
64230;BME280;50547;49.498;0.092;2023-02-20T05:08:33;1026.31;;;8.43;83.62
64230;BME280;50547;49.498;0.092;2023-02-20T05:11:03;1026.33;;;8.49;83.23
64230;BME280;50547;49.498;0.092;2023-02-20T05:13:32;1026.27;;;8.26;84.66
64230;BME280;50547;49.498;0.092;2023-02-20T05:16:01;1026.29;;;8.31;84.47
64230;BME280;50547;49.498;0.092;2023-02-20T05:18:28;1026.25;;;8.44;83.53
64230;BME280;50547;49.498;0.092;2023-02-20T05:20:58;1026.23;;;8.33;83.92
64230;BME280;50547;49.498;0.092;2023-02-20T05:23:27;1026.20;;;8.28;83.97
64230;BME280;50547;49.498;0.092;2023-02-20T05:25:56;1026.16;;;8.39;83.62
64230;BME280;50547;49.498;0.092;2023-02-20T05:28:25;1026.14;;;8.31;83.66
64230;BME280;50547;49.498;0.092;2023-02-20T05:30:59;1026.18;;;8.35;83.10
64230;BME280;50547;49.498;0.092;2023-02-20T05:33:28;1026.22;;;8.37;82.64
64230;BME280;50547;49.498;0.092;2023-02-20T05:35:57;1026.22;;;8.37;82.75
64230;BME280;50547;49.498;0.092;2023-02-20T05:38:27;1026.14;;;8.64;81.94
64230;BME280;50547;49.498;0.092;2023-02-20T05:40:56;1026.12;;;8.69;82.09
64230;BME280;50547;49.498;0.092;2023-02-20T05:43:25;1026.16;;;8.63;82.45
64230;BME280;50547;49.498;0.092;2023-02-20T05:45:53;1026.10;;;8.42;83.76
64230;BME280;50547;49.498;0.092;2023-02-20T05:48:23;1025.93;;;8.33;84.29
64230;BME280;50547;49.498;0.092;2023-02-20T05:50:52;1025.89;;;8.19;85.00
64230;BME280;50547;49.498;0.092;2023-02-20T05:53:21;1025.93;;;8.29;84.40
64230;BME280;50547;49.498;0.092;2023-02-20T05:55:47;1025.99;;;8.40;83.31
64230;BME280;50547;49.498;0.092;2023-02-20T05:58:16;1025.99;;;8.47;82.96
64230;BME280;50547;49.498;0.092;2023-02-20T06:00:45;1025.99;;;8.46;82.91
64230;BME280;50547;49.498;0.092;2023-02-20T06:03:13;1026.10;;;8.53;82.70
64230;BME280;50547;49.498;0.092;2023-02-20T06:05:43;1026.22;;;8.33;83.57
64230;BME280;50547;49.498;0.092;2023-02-20T06:08:12;1026.16;;;8.46;82.91
64230;BME280;50547;49.498;0.092;2023-02-20T06:10:41;1026.10;;;8.45;83.03
64230;BME280;50547;49.498;0.092;2023-02-20T06:13:11;1026.14;;;8.60;82.31
64230;BME280;50547;49.498;0.092;2023-02-20T06:15:40;1026.12;;;8.68;82.05
64230;BME280;50547;49.498;0.092;2023-02-20T06:18:09;1026.18;;;8.67;82.21
64230;BME280;50547;49.498;0.092;2023-02-20T06:20:38;1026.10;;;8.70;82.12
64230;BME280;50547;49.498;0.092;2023-02-20T06:23:07;1026.22;;;8.65;82.34
64230;BME280;50547;49.498;0.092;2023-02-20T06:25:36;1026.22;;;8.59;82.75
64230;BME280;50547;49.498;0.092;2023-02-20T06:28:05;1026.22;;;8.61;83.10
64230;BME280;50547;49.498;0.092;2023-02-20T06:30:34;1026.25;;;8.31;84.28
64230;BME280;50547;49.498;0.092;2023-02-20T06:33:03;1026.33;;;8.21;84.62
64230;BME280;50547;49.498;0.092;2023-02-20T06:35:32;1026.25;;;8.41;83.59
64230;BME280;50547;49.498;0.092;2023-02-20T06:38:01;1026.35;;;8.37;83.66
64230;BME280;50547;49.498;0.092;2023-02-20T06:40:30;1026.37;;;8.53;82.88
64230;BME280;50547;49.498;0.092;2023-02-20T06:42:59;1026.37;;;8.53;83.05
64230;BME280;50547;49.498;0.092;2023-02-20T06:45:28;1026.39;;;8.63;82.87
64230;BME280;50547;49.498;0.092;2023-02-20T06:47:57;1026.37;;;8.56;83.30
64230;BME280;50547;49.498;0.092;2023-02-20T06:50:26;1026.41;;;8.49;83.94
64230;BME280;50547;49.498;0.092;2023-02-20T06:52:55;1026.49;;;8.43;83.87
64230;BME280;50547;49.498;0.092;2023-02-20T06:55:24;1026.39;;;8.39;84.23
64230;BME280;50547;49.498;0.092;2023-02-20T06:57:53;1026.41;;;8.42;84.19
64230;BME280;50547;49.498;0.092;2023-02-20T07:00:22;1026.29;;;8.51;83.85
64230;BME280;50547;49.498;0.092;2023-02-20T07:02:51;1026.45;;;8.46;83.95
64230;BME280;50547;49.498;0.092;2023-02-20T07:05:21;1026.45;;;8.49;83.90
64230;BME280;50547;49.498;0.092;2023-02-20T07:07:50;1026.51;;;8.56;83.41
64230;BME280;50547;49.498;0.092;2023-02-20T07:10:19;1026.49;;;8.53;83.66
64230;BME280;50547;49.498;0.092;2023-02-20T07:12:48;1026.35;;;8.58;83.55
64230;BME280;50547;49.498;0.092;2023-02-20T07:15:17;1026.49;;;8.59;83.75
64230;BME280;50547;49.498;0.092;2023-02-20T07:17:46;1026.45;;;8.63;83.54
64230;BME280;50547;49.498;0.092;2023-02-20T07:20:15;1026.47;;;8.57;83.90
64230;BME280;50547;49.498;0.092;2023-02-20T07:22:48;1026.43;;;8.55;84.35
64230;BME280;50547;49.498;0.092;2023-02-20T07:25:17;1026.53;;;8.54;84.19
64230;BME280;50547;49.498;0.092;2023-02-20T07:27:46;1026.57;;;8.42;84.94
64230;BME280;50547;49.498;0.092;2023-02-20T07:30:15;1026.53;;;8.29;85.36
64230;BME280;50547;49.498;0.092;2023-02-20T07:32:44;1026.51;;;8.37;84.92
64230;BME280;50547;49.498;0.092;2023-02-20T07:35:13;1026.55;;;8.31;85.01
64230;BME280;50547;49.498;0.092;2023-02-20T07:37:42;1026.51;;;8.51;84.31
64230;BME280;50547;49.498;0.092;2023-02-20T07:40:11;1026.59;;;8.43;84.74
64230;BME280;50547;49.498;0.092;2023-02-20T07:42:41;1026.67;;;8.45;84.38
64230;BME280;50547;49.498;0.092;2023-02-20T07:45:12;1026.65;;;8.50;84.22
64230;BME280;50547;49.498;0.092;2023-02-20T07:47:40;1026.67;;;8.47;84.52
64230;BME280;50547;49.498;0.092;2023-02-20T07:50:09;1026.70;;;8.57;84.31
64230;BME280;50547;49.498;0.092;2023-02-20T07:52:39;1026.70;;;8.40;85.05
64230;BME280;50547;49.498;0.092;2023-02-20T07:55:08;1026.67;;;8.33;85.64
64230;BME280;50547;49.498;0.092;2023-02-20T07:57:38;1026.70;;;8.59;84.45
64230;BME280;50547;49.498;0.092;2023-02-20T08:00:08;1026.67;;;8.73;83.97
64230;BME280;50547;49.498;0.092;2023-02-20T08:02:38;1026.74;;;8.73;83.93
64230;BME280;50547;49.498;0.092;2023-02-20T08:05:07;1026.74;;;8.74;84.04
64230;BME280;50547;49.498;0.092;2023-02-20T08:07:36;1026.88;;;8.73;84.07
64230;BME280;50547;49.498;0.092;2023-02-20T08:10:06;1026.88;;;8.61;84.48
64230;BME280;50547;49.498;0.092;2023-02-20T08:12:35;1026.88;;;8.31;85.76
64230;BME280;50547;49.498;0.092;2023-02-20T08:15:05;1026.80;;;8.37;85.60
64230;BME280;50547;49.498;0.092;2023-02-20T08:17:34;1026.86;;;8.39;85.02
64230;BME280;50547;49.498;0.092;2023-02-20T08:20:04;1026.82;;;8.47;84.43
64230;BME280;50547;49.498;0.092;2023-02-20T08:22:33;1026.92;;;8.46;84.35
64230;BME280;50547;49.498;0.092;2023-02-20T08:25:03;1026.92;;;8.47;84.58
64230;BME280;50547;49.498;0.092;2023-02-20T08:27:33;1026.94;;;8.59;83.85
64230;BME280;50547;49.498;0.092;2023-02-20T08:30:02;1026.92;;;8.74;83.55
64230;BME280;50547;49.498;0.092;2023-02-20T08:32:31;1026.84;;;8.89;83.11
64230;BME280;50547;49.498;0.092;2023-02-20T08:35:00;1026.82;;;8.96;82.94
64230;BME280;50547;49.498;0.092;2023-02-20T08:37:29;1026.86;;;9.03;82.80
64230;BME280;50547;49.498;0.092;2023-02-20T08:39:58;1026.88;;;8.90;82.79
64230;BME280;50547;49.498;0.092;2023-02-20T08:42:27;1026.88;;;8.39;84.55
64230;BME280;50547;49.498;0.092;2023-02-20T08:44:56;1026.90;;;8.37;84.67
64230;BME280;50547;49.498;0.092;2023-02-20T08:47:25;1026.92;;;8.43;84.61
64230;BME280;50547;49.498;0.092;2023-02-20T08:49:54;1026.94;;;8.25;85.13
64230;BME280;50547;49.498;0.092;2023-02-20T08:52:23;1026.94;;;8.21;84.83
64230;BME280;50547;49.498;0.092;2023-02-20T08:54:53;1026.88;;;8.29;84.49
64230;BME280;50547;49.498;0.092;2023-02-20T08:57:22;1026.92;;;8.30;84.37
64230;BME280;50547;49.498;0.092;2023-02-20T08:59:51;1026.92;;;8.42;83.62
64230;BME280;50547;49.498;0.092;2023-02-20T09:02:21;1026.84;;;8.47;83.58
64230;BME280;50547;49.498;0.092;2023-02-20T09:04:51;1026.82;;;8.89;82.20
64230;BME280;50547;49.498;0.092;2023-02-20T09:07:20;1026.92;;;8.76;83.01
64230;BME280;50547;49.498;0.092;2023-02-20T09:09:49;1026.84;;;8.85;82.71
64230;BME280;50547;49.498;0.092;2023-02-20T09:12:18;1026.92;;;8.88;82.52
64230;BME280;50547;49.498;0.092;2023-02-20T09:14:48;1026.84;;;8.83;82.53
64230;BME280;50547;49.498;0.092;2023-02-20T09:17:17;1026.76;;;8.84;82.54
64230;BME280;50547;49.498;0.092;2023-02-20T09:19:46;1026.76;;;8.91;82.15
64230;BME280;50547;49.498;0.092;2023-02-20T09:22:15;1026.80;;;8.92;82.27
64230;BME280;50547;49.498;0.092;2023-02-20T09:24:46;1026.82;;;8.95;82.22
64230;BME280;50547;49.498;0.092;2023-02-20T09:27:15;1026.82;;;8.93;82.36
64230;BME280;50547;49.498;0.092;2023-02-20T09:29:44;1026.96;;;8.69;83.30
64230;BME280;50547;49.498;0.092;2023-02-20T09:32:13;1026.90;;;8.61;83.69
64230;BME280;50547;49.498;0.092;2023-02-20T09:34:43;1026.92;;;8.62;83.04
64230;BME280;50547;49.498;0.092;2023-02-20T09:37:12;1026.90;;;8.67;83.15
64230;BME280;50547;49.498;0.092;2023-02-20T09:39:41;1026.86;;;8.54;83.80
64230;BME280;50547;49.498;0.092;2023-02-20T09:42:22;1026.94;;;8.48;84.09
64230;BME280;50547;49.498;0.092;2023-02-20T09:45:02;1026.92;;;8.59;82.94
64230;BME280;50547;49.498;0.092;2023-02-20T09:47:44;1026.92;;;8.67;82.83
64230;BME280;50547;49.498;0.092;2023-02-20T09:50:32;1026.88;;;8.56;83.38
64230;BME280;50547;49.498;0.092;2023-02-20T09:53:05;1026.90;;;8.56;83.04
64230;BME280;50547;49.498;0.092;2023-02-20T09:55:39;1026.90;;;8.58;82.83
64230;BME280;50547;49.498;0.092;2023-02-20T09:58:18;1026.92;;;8.51;82.79
64230;BME280;50547;49.498;0.092;2023-02-20T10:00:49;1027.00;;;8.69;81.96
64230;BME280;50547;49.498;0.092;2023-02-20T10:03:23;1026.98;;;8.63;82.65
64230;BME280;50547;49.498;0.092;2023-02-20T10:05:54;1026.98;;;8.55;82.82
64230;BME280;50547;49.498;0.092;2023-02-20T10:08:24;1026.94;;;8.59;82.70
64230;BME280;50547;49.498;0.092;2023-02-20T10:10:55;1026.92;;;8.53;82.91
64230;BME280;50547;49.498;0.092;2023-02-20T10:13:38;1026.96;;;8.60;82.65
64230;BME280;50547;49.498;0.092;2023-02-20T10:16:21;1026.94;;;8.58;82.62
64230;BME280;50547;49.498;0.092;2023-02-20T10:19:02;1026.86;;;8.64;82.84
64230;BME280;50547;49.498;0.092;2023-02-20T10:21:44;1026.88;;;8.75;82.40
64230;BME280;50547;49.498;0.092;2023-02-20T10:24:22;1026.86;;;8.71;82.72
64230;BME280;50547;49.498;0.092;2023-02-20T10:27:01;1026.88;;;8.80;82.29
64230;BME280;50547;49.498;0.092;2023-02-20T10:29:48;1026.88;;;8.80;82.56
64230;BME280;50547;49.498;0.092;2023-02-20T10:32:20;1026.86;;;8.81;82.76
64230;BME280;50547;49.498;0.092;2023-02-20T10:34:57;1026.82;;;8.82;82.79
64230;BME280;50547;49.498;0.092;2023-02-20T10:37:36;1026.86;;;8.84;82.79
64230;BME280;50547;49.498;0.092;2023-02-20T10:40:13;1026.84;;;8.68;83.11
64230;BME280;50547;49.498;0.092;2023-02-20T10:42:49;1026.76;;;8.87;82.11
64230;BME280;50547;49.498;0.092;2023-02-20T10:45:26;1026.78;;;8.80;82.26
64230;BME280;50547;49.498;0.092;2023-02-20T10:48:03;1026.82;;;8.82;82.57
64230;BME280;50547;49.498;0.092;2023-02-20T10:50:38;1026.82;;;8.86;82.29
64230;BME280;50547;49.498;0.092;2023-02-20T10:53:17;1026.78;;;8.83;82.35
64230;BME280;50547;49.498;0.092;2023-02-20T10:55:51;1026.84;;;8.82;82.33
64230;BME280;50547;49.498;0.092;2023-02-20T10:58:26;1026.76;;;8.91;81.99
64230;BME280;50547;49.498;0.092;2023-02-20T11:00:58;1026.72;;;9.39;80.07
64230;BME280;50547;49.498;0.092;2023-02-20T11:03:35;1026.65;;;9.52;79.67
64230;BME280;50547;49.498;0.092;2023-02-20T11:06:10;1026.69;;;9.56;80.10
64230;BME280;50547;49.498;0.092;2023-02-20T11:08:39;1026.63;;;9.51;80.84
64230;BME280;50547;49.498;0.092;2023-02-20T11:11:24;1026.65;;;9.59;80.10
64230;BME280;50547;49.498;0.092;2023-02-20T11:13:58;1026.67;;;9.70;79.75
64230;BME280;50547;49.498;0.092;2023-02-20T11:16:30;1026.61;;;9.70;79.70
64230;BME280;50547;49.498;0.092;2023-02-20T11:19:05;1026.57;;;9.66;79.87
64230;BME280;50547;49.498;0.092;2023-02-20T11:21:38;1026.55;;;9.46;80.50
64230;BME280;50547;49.498;0.092;2023-02-20T11:24:19;1026.51;;;9.33;80.53
64230;BME280;50547;49.498;0.092;2023-02-20T11:26:49;1026.47;;;9.28;80.60
64230;BME280;50547;49.498;0.092;2023-02-20T11:29:23;1026.41;;;9.29;80.38
64230;BME280;50547;49.498;0.092;2023-02-20T11:31:52;1026.41;;;9.28;80.67
64230;BME280;50547;49.498;0.092;2023-02-20T11:34:23;1026.39;;;9.40;80.22
64230;BME280;50547;49.498;0.092;2023-02-20T11:37:04;1026.39;;;9.26;80.82
64230;BME280;50547;49.498;0.092;2023-02-20T11:39:34;1026.39;;;9.45;79.92
64230;BME280;50547;49.498;0.092;2023-02-20T11:42:06;1026.31;;;9.57;79.58
64230;BME280;50547;49.498;0.092;2023-02-20T11:44:39;1026.31;;;9.53;79.53
64230;BME280;50547;49.498;0.092;2023-02-20T11:47:18;1026.31;;;9.77;78.34
64230;BME280;50547;49.498;0.092;2023-02-20T11:49:47;1026.27;;;9.34;80.28
64230;BME280;50547;49.498;0.092;2023-02-20T11:52:18;1026.29;;;9.41;79.73
64230;BME280;50547;49.498;0.092;2023-02-20T11:55:08;1026.23;;;9.45;79.54
64230;BME280;50547;49.498;0.092;2023-02-20T11:57:41;1026.23;;;9.77;78.39
64230;BME280;50547;49.498;0.092;2023-02-20T12:00:15;1026.16;;;9.73;78.71
64230;BME280;50547;49.498;0.092;2023-02-20T12:02:54;1026.12;;;10.00;77.56
64230;BME280;50547;49.498;0.092;2023-02-20T12:05:37;1025.95;;;9.93;77.93
64230;BME280;50547;49.498;0.092;2023-02-20T12:12:41;1025.81;;;9.72;78.41
64230;BME280;50547;49.498;0.092;2023-02-20T12:15:12;1025.79;;;9.93;77.57
64230;BME280;50547;49.498;0.092;2023-02-20T12:17:53;1025.76;;;9.99;77.07
64230;BME280;50547;49.498;0.092;2023-02-20T12:20:28;1025.66;;;10.29;76.04
64230;BME280;50547;49.498;0.092;2023-02-20T12:23:03;1025.62;;;10.33;75.84
64230;BME280;50547;49.498;0.092;2023-02-20T12:25:49;1025.60;;;10.15;76.81
64230;BME280;50547;49.498;0.092;2023-02-20T12:28:25;1025.64;;;10.46;75.41
64230;BME280;50547;49.498;0.092;2023-02-20T12:31:06;1025.54;;;10.21;76.32
64230;BME280;50547;49.498;0.092;2023-02-20T12:33:53;1025.50;;;10.28;76.18
64230;BME280;50547;49.498;0.092;2023-02-20T12:36:29;1025.42;;;10.12;77.08
64230;BME280;50547;49.498;0.092;2023-02-20T12:39:05;1025.38;;;9.86;77.59
64230;BME280;50547;49.498;0.092;2023-02-20T12:42:00;1025.38;;;9.76;78.04
64230;BME280;50547;49.498;0.092;2023-02-20T12:44:44;1025.34;;;9.55;78.63
64230;BME280;50547;49.498;0.092;2023-02-20T12:47:23;1025.34;;;9.97;76.61
64230;BME280;50547;49.498;0.092;2023-02-20T12:50:14;1025.29;;;10.18;75.60
64230;BME280;50547;49.498;0.092;2023-02-20T12:52:55;1025.29;;;10.24;75.77
64230;BME280;50547;49.498;0.092;2023-02-20T12:55:32;1025.25;;;10.44;75.01
64230;BME280;50547;49.498;0.092;2023-02-20T12:58:13;1025.15;;;10.85;73.52
64230;BME280;50547;49.498;0.092;2023-02-20T13:00:46;1025.13;;;10.99;73.53
64230;BME280;50547;49.498;0.092;2023-02-20T13:03:21;1025.15;;;11.04;74.11
64230;BME280;50547;49.498;0.092;2023-02-20T13:05:51;1025.09;;;11.02;74.31
64230;BME280;50547;49.498;0.092;2023-02-20T13:08:26;1024.95;;;11.02;74.15
64230;BME280;50547;49.498;0.092;2023-02-20T13:10:57;1024.91;;;11.04;73.96
64230;BME280;50547;49.498;0.092;2023-02-20T13:13:34;1024.83;;;10.89;74.78
64230;BME280;50547;49.498;0.092;2023-02-20T13:16:08;1024.74;;;10.59;75.03
64230;BME280;50547;49.498;0.092;2023-02-20T13:18:46;1024.74;;;10.65;75.23
64230;BME280;50547;49.498;0.092;2023-02-20T13:21:18;1024.66;;;11.19;72.67
64230;BME280;50547;49.498;0.092;2023-02-20T13:23:50;1024.54;;;11.46;71.12
64230;BME280;50547;49.498;0.092;2023-02-20T13:26:52;1024.66;;;11.27;71.84
64230;BME280;50547;49.498;0.092;2023-02-20T13:29:23;1024.56;;;11.61;70.57
64230;BME280;50547;49.498;0.092;2023-02-20T13:31:54;1024.48;;;11.76;70.13
64230;BME280;50547;49.498;0.092;2023-02-20T13:34:31;1024.46;;;11.77;70.26
64230;BME280;50547;49.498;0.092;2023-02-20T13:37:01;1024.36;;;11.71;70.58
64230;BME280;50547;49.498;0.092;2023-02-20T13:42:39;1024.27;;;12.05;69.74
64230;BME280;50547;49.498;0.092;2023-02-20T13:45:41;1024.23;;;12.04;70.12
64230;BME280;50547;49.498;0.092;2023-02-20T13:48:38;1024.25;;;11.12;73.10
64230;BME280;50547;49.498;0.092;2023-02-20T13:51:40;1024.13;;;10.60;75.73
64230;BME280;50547;49.498;0.092;2023-02-20T13:54:17;1024.15;;;11.10;73.23
64230;BME280;50547;49.498;0.092;2023-02-20T13:56:53;1024.11;;;11.41;71.79
64230;BME280;50547;49.498;0.092;2023-02-20T13:59:23;1024.13;;;11.66;70.40